createdAt,value
2022-12-08T00:00:18.591Z,11.77
2022-12-08T00:02:47.704Z,16.53
2022-12-08T00:05:36.037Z,11.80
2022-12-08T00:08:24.216Z,11.80
2022-12-08T00:10:53.373Z,10.77
2022-12-08T00:13:22.423Z,7.50
2022-12-08T00:15:51.733Z,6.00
2022-12-08T00:18:20.686Z,9.67
2022-12-08T00:20:56.835Z,10.40
2022-12-08T00:23:26.443Z,6.67
2022-12-08T00:25:55.468Z,6.13
2022-12-08T00:28:24.798Z,8.17
2022-12-08T00:30:54.217Z,7.70
2022-12-08T00:33:23.304Z,13.67
2022-12-08T00:35:52.352Z,12.40
2022-12-08T00:38:21.373Z,12.07
2022-12-08T00:40:50.376Z,13.43
2022-12-08T00:43:19.976Z,10.67
2022-12-08T00:45:49.793Z,10.27
2022-12-08T00:48:18.978Z,14.17
2022-12-08T00:50:49.050Z,14.93
2022-12-08T00:53:18.785Z,16.03
2022-12-08T00:55:47.998Z,18.43
2022-12-08T00:58:17.791Z,21.73
2022-12-08T01:00:47.532Z,22.17
2022-12-08T01:03:16.736Z,25.13
2022-12-08T01:05:46.071Z,21.50
2022-12-08T01:08:19.370Z,22.73
2022-12-08T01:10:49.659Z,26.07
2022-12-08T01:13:19.224Z,29.77
2022-12-08T01:15:48.303Z,25.50
2022-12-08T01:18:18.046Z,19.77
2022-12-08T01:20:47.940Z,15.93
2022-12-08T01:23:17.552Z,16.93
2022-12-08T01:25:46.788Z,18.03
2022-12-08T01:28:16.232Z,15.43
2022-12-08T01:30:45.918Z,16.00
2022-12-08T01:33:15.977Z,15.53
2022-12-08T01:35:48.318Z,14.20
2022-12-08T01:38:17.850Z,13.77
2022-12-08T01:40:47.562Z,14.90
2022-12-08T01:43:20.835Z,13.77
2022-12-08T01:45:50.125Z,14.63
2022-12-08T01:48:21.364Z,16.30
2022-12-08T01:50:50.699Z,15.90
2022-12-08T01:53:21.420Z,17.20
2022-12-08T01:56:10.682Z,13.93
2022-12-08T01:58:41.556Z,10.93
2022-12-08T02:01:11.357Z,20.20
2022-12-08T02:03:50.767Z,18.97
2022-12-08T02:06:20.295Z,21.33
2022-12-08T02:08:50.438Z,16.27
2022-12-08T02:11:19.977Z,17.53
2022-12-08T02:13:49.729Z,16.63
2022-12-08T02:16:19.470Z,22.23
2022-12-08T02:19:28.577Z,9.63
2022-12-08T02:24:19.490Z,8.60
2022-12-08T02:26:51.557Z,10.57
2022-12-08T02:29:33.314Z,13.30
2022-12-08T02:32:24.919Z,15.03
2022-12-08T02:35:02.045Z,12.87
2022-12-08T02:37:36.394Z,17.07
2022-12-08T02:40:15.103Z,28.80
2022-12-08T02:43:02.914Z,21.97
2022-12-08T02:45:40.170Z,19.37
2022-12-08T02:48:10.626Z,13.67
2022-12-08T02:50:39.740Z,12.47
2022-12-08T02:55:48.261Z,16.20
2022-12-08T02:58:47.155Z,10.13
2022-12-08T03:01:21.299Z,19.30
2022-12-08T03:03:54.220Z,12.23
2022-12-08T03:06:38.872Z,12.83
2022-12-08T03:09:08.402Z,12.40
2022-12-08T03:11:52.169Z,9.17
2022-12-08T03:14:21.157Z,12.37
2022-12-08T03:17:04.069Z,9.13
2022-12-08T03:19:35.514Z,13.07
2022-12-08T03:22:05.333Z,11.03
2022-12-08T03:24:42.403Z,12.13
2022-12-08T03:27:38.898Z,12.80
2022-12-08T03:30:09.070Z,12.50
2022-12-08T03:32:38.705Z,13.63
2022-12-08T03:35:10.159Z,13.07
2022-12-08T03:37:39.612Z,15.03
2022-12-08T03:40:09.819Z,12.73
2022-12-08T03:42:39.290Z,11.60
2022-12-08T03:45:08.651Z,16.33
2022-12-08T03:47:37.932Z,14.73
2022-12-08T03:50:08.257Z,14.80
2022-12-08T03:52:37.457Z,11.47
2022-12-08T03:55:07.127Z,10.13
2022-12-08T03:57:36.130Z,14.47
2022-12-08T04:00:06.315Z,15.27
2022-12-08T04:02:36.087Z,13.60
2022-12-08T04:05:05.693Z,15.57
2022-12-08T04:07:34.779Z,16.07
2022-12-08T04:10:04.075Z,11.53
2022-12-08T04:12:33.289Z,16.33
2022-12-08T04:15:02.279Z,14.80
2022-12-08T04:17:32.399Z,13.93
2022-12-08T04:20:02.390Z,18.67
2022-12-08T04:22:32.092Z,14.85
2022-12-08T04:25:01.552Z,16.92
2022-12-08T04:27:30.615Z,17.08
2022-12-08T04:30:01.644Z,17.98
2022-12-08T04:32:31.004Z,16.00
2022-12-08T04:35:00.065Z,15.52
2022-12-08T04:37:30.530Z,16.02
2022-12-08T04:40:04.287Z,17.80
2022-12-08T04:42:43.815Z,14.77
2022-12-08T04:45:12.983Z,15.23
2022-12-08T04:47:44.951Z,16.65
2022-12-08T04:50:14.241Z,19.38
2022-12-08T04:52:43.743Z,18.35
2022-12-08T04:55:13.304Z,18.20
2022-12-08T04:57:42.404Z,21.23
2022-12-08T05:00:13.994Z,22.17
2022-12-08T05:02:43.866Z,26.48
2022-12-08T05:05:13.536Z,30.35
2022-12-08T05:07:43.216Z,37.15
2022-12-08T05:10:12.803Z,33.03
2022-12-08T05:12:41.927Z,39.92
2022-12-08T05:15:11.149Z,44.97
2022-12-08T05:17:41.294Z,45.85
2022-12-08T05:20:10.886Z,51.78
2022-12-08T05:22:39.856Z,54.45
2022-12-08T05:25:09.677Z,50.42
2022-12-08T05:27:39.441Z,49.13
2022-12-08T05:30:08.783Z,51.90
2022-12-08T05:32:38.381Z,50.83
2022-12-08T05:35:07.608Z,56.88
2022-12-08T05:37:37.088Z,58.17
2022-12-08T05:40:10.469Z,52.78
2022-12-08T05:42:40.045Z,48.13
2022-12-08T05:45:09.578Z,45.13
2022-12-08T05:47:39.286Z,45.55
2022-12-08T05:50:08.597Z,45.47
2022-12-08T05:52:37.592Z,40.60
2022-12-08T05:55:06.862Z,38.50
2022-12-08T05:57:36.689Z,31.63
2022-12-08T06:00:06.757Z,30.25
2022-12-08T06:02:40.954Z,31.00
2022-12-08T06:05:11.342Z,32.30
2022-12-08T06:07:42.228Z,31.17
2022-12-08T06:10:12.111Z,35.75
2022-12-08T06:12:41.753Z,33.42
2022-12-08T06:15:11.043Z,33.85
2022-12-08T06:17:40.577Z,33.05
2022-12-08T06:20:09.790Z,36.30
2022-12-08T06:22:38.850Z,38.20
2022-12-08T06:25:10.090Z,42.40
2022-12-08T06:27:39.814Z,39.10
2022-12-08T06:30:09.580Z,37.92
2022-12-08T06:32:38.701Z,37.08
2022-12-08T06:35:08.329Z,40.67
2022-12-08T06:37:37.913Z,36.90
2022-12-08T06:40:07.878Z,37.47
2022-12-08T06:42:47.670Z,36.83
2022-12-08T06:45:17.056Z,38.15
2022-12-08T06:47:47.567Z,35.50
2022-12-08T06:50:16.780Z,37.05
2022-12-08T06:53:00.778Z,34.05
2022-12-08T06:58:23.827Z,33.00
2022-12-08T07:00:52.914Z,34.78
2022-12-08T07:03:21.880Z,34.08
2022-12-08T07:05:51.484Z,29.98
2022-12-08T07:08:20.620Z,31.52
2022-12-08T07:10:49.687Z,32.22
2022-12-08T07:13:18.726Z,28.80
2022-12-08T07:15:48.243Z,29.05
2022-12-08T07:18:18.134Z,27.42
2022-12-08T07:20:47.243Z,26.60
2022-12-08T07:23:16.284Z,23.30
2022-12-08T07:25:45.376Z,23.15
2022-12-08T07:28:14.440Z,20.20
2022-12-08T07:30:43.744Z,15.75
2022-12-08T07:33:13.220Z,20.00
2022-12-08T07:35:48.911Z,18.60
2022-12-08T07:38:18.723Z,19.35
2022-12-08T07:40:48.240Z,17.42
2022-12-08T07:43:17.445Z,15.82
2022-12-08T07:45:46.627Z,16.33
2022-12-08T07:48:16.979Z,16.33
2022-12-08T07:50:46.403Z,16.13
2022-12-08T07:53:15.751Z,17.92
2022-12-08T07:55:45.389Z,15.10
2022-12-08T07:58:14.927Z,13.43
2022-12-08T08:00:44.137Z,11.93
2022-12-08T08:03:13.386Z,9.82
2022-12-08T08:05:42.816Z,12.95
2022-12-08T08:08:12.867Z,11.25
2022-12-08T08:10:42.483Z,13.07
2022-12-08T08:13:12.345Z,11.70
2022-12-08T08:15:42.210Z,11.75
2022-12-08T08:18:11.821Z,11.77
2022-12-08T08:20:40.996Z,12.02
2022-12-08T08:23:10.802Z,9.05
2022-12-08T08:25:40.958Z,8.40
2022-12-08T08:28:10.531Z,8.07
2022-12-08T08:30:40.434Z,7.43
2022-12-08T08:33:10.077Z,5.03
2022-12-08T08:35:47.110Z,8.40
2022-12-08T08:38:19.955Z,6.30
2022-12-08T08:40:52.160Z,5.88
2022-12-08T08:43:37.571Z,6.25
2022-12-08T08:46:08.284Z,4.40
2022-12-08T08:48:40.835Z,3.85
2022-12-08T08:51:10.766Z,3.80
2022-12-08T08:53:40.298Z,5.32
2022-12-08T08:56:13.706Z,5.13
2022-12-08T08:58:43.733Z,5.68
2022-12-08T09:01:26.784Z,4.07
2022-12-08T09:03:56.711Z,4.72
2022-12-08T09:06:31.701Z,4.93
2022-12-08T09:09:01.934Z,4.93
2022-12-08T09:11:31.058Z,2.70
2022-12-08T09:14:00.503Z,5.53
2022-12-08T09:16:30.221Z,5.03
2022-12-08T09:19:00.413Z,4.70
2022-12-08T09:21:29.989Z,3.97
2022-12-08T09:24:00.646Z,4.57
2022-12-08T09:26:30.735Z,8.20
2022-12-08T09:28:59.964Z,5.83
2022-12-08T09:31:31.187Z,6.43
2022-12-08T09:34:00.848Z,6.27
2022-12-08T09:36:30.659Z,7.57
2022-12-08T09:39:03.077Z,8.80
2022-12-08T09:41:48.421Z,6.63
2022-12-08T09:44:36.816Z,8.55
2022-12-08T09:47:07.631Z,7.53
2022-12-08T09:49:48.201Z,8.40
2022-12-08T09:52:20.563Z,6.73
2022-12-08T09:54:49.989Z,8.07
2022-12-08T09:57:21.114Z,7.40
2022-12-08T09:59:53.753Z,7.53
2022-12-08T10:02:25.302Z,9.03
2022-12-08T10:04:56.092Z,7.33
2022-12-08T10:07:32.423Z,9.73
2022-12-08T10:10:05.332Z,10.43
2022-12-08T10:12:56.155Z,8.98
2022-12-08T10:15:36.349Z,7.63
2022-12-08T10:18:11.251Z,12.60
2022-12-08T10:20:42.748Z,7.57
2022-12-08T10:23:15.375Z,5.37
2022-12-08T10:25:49.385Z,7.03
2022-12-08T10:28:18.516Z,5.77
2022-12-08T10:30:48.008Z,6.63
2022-12-08T10:33:17.668Z,6.03
2022-12-08T10:35:49.925Z,6.57
2022-12-08T10:38:29.432Z,5.70
2022-12-08T10:41:06.357Z,6.80
2022-12-08T10:43:35.896Z,7.53
2022-12-08T10:46:15.271Z,5.07
2022-12-08T10:48:51.792Z,6.07
2022-12-08T10:51:30.761Z,6.53
2022-12-08T10:54:00.031Z,8.30
2022-12-08T10:56:30.254Z,7.53
2022-12-08T10:59:08.627Z,3.93
2022-12-08T11:01:39.099Z,6.50
2022-12-08T11:04:19.494Z,4.40
2022-12-08T11:06:48.986Z,5.33
2022-12-08T11:09:21.315Z,7.83
2022-12-08T11:11:59.313Z,6.77
2022-12-08T11:14:31.375Z,7.70
2022-12-08T11:17:10.181Z,7.23
2022-12-08T11:19:43.041Z,8.17
2022-12-08T11:22:31.030Z,4.97
2022-12-08T11:25:01.532Z,7.63
2022-12-08T11:27:30.858Z,9.20
2022-12-08T11:30:01.648Z,8.37
2022-12-08T11:32:30.640Z,11.87
2022-12-08T11:35:06.548Z,12.57
2022-12-08T11:37:43.258Z,9.70
2022-12-08T11:40:24.694Z,16.37
2022-12-08T11:42:56.747Z,11.37
2022-12-08T11:45:27.717Z,22.27
2022-12-08T11:48:14.677Z,44.93
2022-12-08T11:50:46.044Z,21.03
2022-12-08T11:53:38.828Z,19.77
2022-12-08T11:56:28.536Z,23.87
2022-12-08T11:58:58.337Z,18.60
2022-12-08T12:01:28.135Z,20.33
2022-12-08T12:04:15.598Z,17.23
2022-12-08T12:06:54.658Z,37.83
2022-12-08T12:09:29.665Z,44.67
2022-12-08T12:12:14.444Z,47.50
2022-12-08T12:14:49.425Z,44.03
2022-12-08T12:17:41.459Z,46.77
2022-12-08T12:20:32.491Z,45.37
2022-12-08T12:23:07.815Z,45.97
2022-12-08T12:25:38.230Z,37.43
2022-12-08T12:28:09.239Z,42.17
2022-12-08T12:31:02.875Z,38.10
2022-12-08T12:33:33.539Z,45.90
2022-12-08T12:36:09.289Z,51.80
2022-12-08T12:38:58.631Z,53.80
2022-12-08T12:41:45.241Z,52.27
2022-12-08T12:44:15.100Z,53.17
2022-12-08T12:46:51.111Z,60.00
2022-12-08T12:49:39.756Z,59.55
2022-12-08T12:52:22.314Z,57.73
2022-12-08T12:54:51.621Z,59.47
2022-12-08T12:57:21.371Z,40.53
2022-12-08T13:00:02.192Z,24.47
2022-12-08T13:02:33.656Z,17.10
2022-12-08T13:05:19.916Z,17.30
2022-12-08T13:07:52.957Z,13.13
2022-12-08T13:10:40.244Z,14.30
2022-12-08T13:13:13.201Z,18.17
2022-12-08T13:15:43.935Z,22.10
2022-12-08T13:18:37.444Z,23.80
2022-12-08T13:21:07.618Z,16.10
2022-12-08T13:23:40.220Z,16.20
2022-12-08T13:26:15.621Z,19.13
2022-12-08T13:29:04.770Z,20.60
2022-12-08T13:31:46.624Z,24.47
2022-12-08T13:34:22.017Z,21.00
2022-12-08T13:36:53.219Z,20.40
2022-12-08T13:39:34.201Z,21.37
2022-12-08T13:42:15.749Z,20.93
2022-12-08T13:48:05.987Z,17.30
2022-12-08T13:54:45.404Z,16.83
2022-12-08T13:59:26.539Z,12.00
2022-12-08T14:01:56.560Z,17.57
2022-12-08T14:07:15.889Z,21.50
2022-12-08T14:09:45.415Z,19.70
2022-12-08T14:12:22.581Z,18.00
2022-12-08T14:15:08.085Z,18.40
2022-12-08T14:17:37.609Z,24.90
2022-12-08T14:20:21.689Z,22.57
2022-12-08T14:22:51.530Z,21.43
2022-12-08T14:25:28.615Z,22.33
2022-12-08T14:28:02.009Z,17.03
2022-12-08T14:30:34.156Z,17.90
2022-12-08T14:33:04.495Z,13.13
2022-12-08T14:35:37.997Z,19.60
2022-12-08T14:38:10.224Z,17.70
2022-12-08T14:40:40.470Z,17.90
2022-12-08T14:43:09.990Z,16.93
2022-12-08T14:45:42.125Z,15.00
2022-12-08T14:48:33.425Z,14.83
2022-12-08T14:51:05.762Z,18.90
2022-12-08T14:53:40.369Z,19.13
2022-12-08T14:56:25.864Z,18.27
2022-12-08T14:59:04.382Z,16.48
2022-12-08T15:01:34.238Z,10.70
2022-12-08T15:04:16.184Z,12.07
2022-12-08T15:06:49.812Z,15.73
2022-12-08T15:09:19.613Z,13.50
2022-12-08T15:11:49.016Z,11.10
2022-12-08T15:14:50.566Z,6.83
2022-12-08T15:17:30.153Z,9.77
2022-12-08T15:19:59.946Z,9.83
2022-12-08T15:22:29.582Z,11.67
2022-12-08T15:24:58.814Z,12.97
2022-12-08T15:27:28.025Z,9.57
2022-12-08T15:29:57.539Z,11.07
2022-12-08T15:32:27.163Z,15.53
2022-12-08T15:34:56.824Z,21.57
2022-12-08T15:37:27.164Z,19.27
2022-12-08T15:39:56.679Z,14.73
2022-12-08T15:42:26.271Z,22.87
2022-12-08T15:44:55.486Z,16.03
2022-12-08T15:47:25.199Z,17.50
2022-12-08T15:49:55.062Z,16.93
2022-12-08T15:52:24.855Z,13.73
2022-12-08T15:54:55.438Z,12.40
2022-12-08T15:57:53.590Z,10.53
2022-12-08T16:00:51.854Z,12.33
2022-12-08T16:04:08.996Z,9.57
2022-12-08T16:09:14.661Z,12.57
2022-12-08T16:12:08.564Z,9.57
2022-12-08T16:17:29.194Z,10.23
2022-12-08T16:19:58.890Z,11.23
2022-12-08T16:22:52.733Z,14.07
2022-12-08T16:25:20.292Z,8.53
2022-12-08T16:28:01.228Z,14.03
2022-12-08T16:30:35.274Z,10.30
2022-12-08T16:33:04.885Z,10.10
2022-12-08T16:35:34.160Z,8.30
2022-12-08T16:38:03.315Z,16.37
2022-12-08T16:40:32.381Z,8.60
2022-12-08T16:43:02.003Z,10.90
2022-12-08T16:45:31.313Z,12.57
2022-12-08T16:48:07.843Z,11.80
2022-12-08T16:50:42.766Z,10.53
2022-12-08T16:53:13.380Z,16.43
2022-12-08T16:55:43.669Z,10.97
2022-12-08T16:58:17.727Z,9.77
2022-12-08T17:00:47.695Z,12.13
2022-12-08T17:03:17.719Z,14.53
2022-12-08T17:05:47.119Z,8.23
2022-12-08T17:08:16.535Z,10.33
2022-12-08T17:11:06.049Z,7.57
2022-12-08T17:13:39.043Z,6.17
2022-12-08T17:16:11.992Z,12.53
2022-12-08T17:18:41.405Z,14.53
2022-12-08T17:21:12.585Z,4.57
2022-12-08T17:23:42.783Z,8.07
2022-12-08T17:26:12.067Z,11.57
2022-12-08T17:28:59.971Z,10.53
2022-12-08T17:31:31.469Z,10.23
2022-12-08T17:34:04.966Z,4.70
2022-12-08T17:36:35.168Z,5.07
2022-12-08T17:39:04.307Z,5.03
2022-12-08T17:41:33.766Z,4.50
2022-12-08T17:44:03.279Z,7.70
2022-12-08T17:46:36.926Z,7.67
2022-12-08T17:49:12.991Z,6.33
2022-12-08T17:51:42.192Z,6.17
2022-12-08T17:54:11.592Z,8.17
2022-12-08T17:56:42.307Z,7.00
2022-12-08T17:59:11.586Z,6.13
2022-12-08T18:01:40.740Z,5.93
2022-12-08T18:04:09.987Z,8.03
2022-12-08T18:06:39.672Z,6.40
2022-12-08T18:09:09.382Z,2.43
2022-12-08T18:11:38.394Z,7.77
2022-12-08T18:14:10.706Z,10.47
2022-12-08T18:16:40.350Z,4.50
2022-12-08T18:19:09.542Z,8.40
2022-12-08T18:21:40.503Z,11.97
2022-12-08T18:24:10.040Z,10.23
2022-12-08T18:26:39.508Z,7.67
2022-12-08T18:29:09.166Z,12.07
2022-12-08T18:31:40.318Z,11.93
2022-12-08T18:34:09.385Z,10.50
2022-12-08T18:36:38.881Z,7.97
2022-12-08T18:39:10.981Z,12.80
2022-12-08T18:41:43.146Z,5.60
2022-12-08T18:44:12.668Z,14.43
2022-12-08T18:46:42.118Z,9.77
2022-12-08T18:49:14.412Z,8.73
2022-12-08T18:51:44.444Z,7.23
2022-12-08T18:54:14.063Z,4.23
2022-12-08T18:56:43.622Z,6.97
2022-12-08T18:59:14.604Z,10.33
2022-12-08T19:01:43.779Z,2.83
2022-12-08T19:04:29.273Z,5.90
2022-12-08T19:06:58.743Z,2.20
2022-12-08T19:09:29.497Z,2.90
2022-12-08T19:11:58.619Z,4.13
2022-12-08T19:14:28.836Z,7.27
2022-12-08T19:16:59.087Z,5.97
2022-12-08T19:19:28.523Z,10.20
2022-12-08T19:21:57.574Z,7.33
2022-12-08T19:24:27.026Z,8.10
2022-12-08T19:26:56.564Z,8.57
2022-12-08T19:29:26.425Z,7.87
2022-12-08T19:31:56.095Z,4.93
2022-12-08T19:34:25.682Z,10.17
2022-12-08T19:36:54.836Z,5.90
2022-12-08T19:39:43.466Z,9.13
2022-12-08T19:42:35.241Z,4.27
2022-12-08T19:45:07.308Z,7.30
2022-12-08T19:47:36.761Z,7.17
2022-12-08T19:50:24.544Z,6.73
2022-12-08T19:52:54.620Z,3.80
2022-12-08T19:55:24.401Z,5.70
2022-12-08T19:57:54.140Z,6.63
2022-12-08T20:00:26.437Z,6.33
2022-12-08T20:02:59.625Z,9.07
2022-12-08T20:05:30.038Z,3.90
2022-12-08T20:07:59.571Z,5.43
2022-12-08T20:10:34.236Z,7.30
2022-12-08T20:13:22.593Z,5.27
2022-12-08T20:15:51.870Z,3.73
2022-12-08T20:18:21.434Z,8.50
2022-12-08T20:20:51.080Z,6.43
2022-12-08T20:23:20.162Z,11.60
2022-12-08T20:25:49.276Z,13.83
2022-12-08T20:28:20.080Z,5.63
2022-12-08T20:30:50.292Z,7.23
2022-12-08T20:33:19.983Z,7.80
2022-12-08T20:35:50.822Z,4.37
2022-12-08T20:38:22.771Z,3.00
2022-12-08T20:40:52.377Z,7.53
2022-12-08T20:43:21.675Z,1.13
2022-12-08T20:45:50.597Z,7.80
2022-12-08T20:48:22.756Z,3.73
2022-12-08T20:50:53.174Z,1.20
2022-12-08T20:53:22.788Z,2.40
2022-12-08T20:55:51.880Z,3.73
2022-12-08T20:58:20.982Z,1.13
2022-12-08T21:00:50.652Z,3.83
2022-12-08T21:03:20.387Z,4.47
2022-12-08T21:05:53.525Z,3.80
2022-12-08T21:08:25.899Z,3.90
2022-12-08T21:10:56.074Z,3.97
2022-12-08T21:13:25.641Z,5.60
2022-12-08T21:15:55.199Z,2.10
2022-12-08T21:18:25.122Z,4.43
2022-12-08T21:20:54.686Z,4.50
2022-12-08T21:23:26.975Z,7.07
2022-12-08T21:25:56.237Z,11.73
2022-12-08T21:28:25.278Z,5.07
2022-12-08T21:30:54.633Z,3.67
2022-12-08T21:33:23.911Z,11.03
2022-12-08T21:36:02.824Z,3.37
2022-12-08T21:38:32.724Z,5.80
2022-12-08T21:41:06.320Z,6.37
2022-12-08T21:43:36.340Z,3.17
2022-12-08T21:46:05.954Z,4.90
2022-12-08T21:48:39.280Z,3.50
2022-12-08T21:51:09.927Z,6.13
2022-12-08T21:53:39.874Z,2.37
2022-12-08T21:56:27.827Z,2.67
2022-12-08T21:58:57.434Z,7.93
2022-12-08T22:01:26.636Z,6.30
2022-12-08T22:03:56.752Z,3.17
2022-12-08T22:06:26.386Z,0.73
2022-12-08T22:08:58.759Z,3.67
2022-12-08T22:11:28.304Z,4.47
2022-12-08T22:13:58.992Z,2.80
2022-12-08T22:16:28.516Z,4.83
2022-12-08T22:18:57.917Z,4.70
2022-12-08T22:21:27.511Z,4.00
2022-12-08T22:23:59.105Z,5.30
2022-12-08T22:26:29.434Z,2.93
2022-12-08T22:28:59.201Z,4.70
2022-12-08T22:31:29.086Z,4.00
2022-12-08T22:33:58.838Z,3.53
2022-12-08T22:36:28.958Z,5.40
2022-12-08T22:38:58.706Z,8.37
2022-12-08T22:41:28.500Z,6.33
2022-12-08T22:43:58.169Z,0.70
2022-12-08T22:46:28.107Z,2.17
2022-12-08T22:48:57.888Z,6.87
2022-12-08T22:51:27.512Z,4.70
2022-12-08T22:53:57.383Z,7.73
2022-12-08T22:56:26.878Z,6.03
2022-12-08T22:58:56.487Z,2.37
2022-12-08T23:01:27.228Z,7.47
2022-12-08T23:03:58.217Z,2.50
2022-12-08T23:06:28.083Z,4.90
2022-12-08T23:08:58.059Z,8.77
2022-12-08T23:11:29.778Z,8.23
2022-12-08T23:14:01.544Z,5.57
2022-12-08T23:16:31.174Z,1.97
2022-12-08T23:19:00.984Z,4.87
2022-12-08T23:21:30.613Z,5.67
2022-12-08T23:24:02.570Z,7.07
2022-12-08T23:26:33.113Z,6.07
2022-12-08T23:29:02.764Z,5.40
2022-12-08T23:31:31.951Z,4.97
2022-12-08T23:34:01.500Z,9.00
2022-12-08T23:36:31.144Z,7.87
2022-12-08T23:39:00.309Z,4.13
2022-12-08T23:41:29.438Z,10.13
2022-12-08T23:43:59.031Z,12.43
2022-12-08T23:46:28.702Z,15.97
2022-12-08T23:48:58.132Z,11.27
2022-12-08T23:51:27.540Z,21.37
2022-12-08T23:53:56.677Z,14.33
2022-12-08T23:56:30.202Z,7.63
2022-12-08T23:59:00.290Z,15.80
